sensor_id;sensor_type;location;lat;lon;timestamp;temperature;humidity
61201;DHT22;47065;52.898;6.992;2022-07-11T00:02:11;15.40;99.90
61201;DHT22;47065;52.898;6.992;2022-07-11T00:04:37;15.40;99.90
61201;DHT22;47065;52.898;6.992;2022-07-11T00:07:04;15.40;99.90
61201;DHT22;47065;52.898;6.992;2022-07-11T00:09:30;15.40;99.90
61201;DHT22;47065;52.898;6.992;2022-07-11T00:11:56;15.40;99.90
61201;DHT22;47065;52.898;6.992;2022-07-11T00:14:22;15.40;99.90
61201;DHT22;47065;52.898;6.992;2022-07-11T00:16:49;15.40;99.90
61201;DHT22;47065;52.898;6.992;2022-07-11T00:19:15;15.40;99.90
61201;DHT22;47065;52.898;6.992;2022-07-11T00:21:40;15.40;99.90
61201;DHT22;47065;52.898;6.992;2022-07-11T00:24:06;15.40;99.90
61201;DHT22;47065;52.898;6.992;2022-07-11T00:26:33;15.40;99.90
61201;DHT22;47065;52.898;6.992;2022-07-11T00:28:59;15.40;99.90
61201;DHT22;47065;52.898;6.992;2022-07-11T00:31:24;15.40;99.90
61201;DHT22;47065;52.898;6.992;2022-07-11T00:33:50;15.40;99.90
61201;DHT22;47065;52.898;6.992;2022-07-11T00:36:15;15.40;99.90
61201;DHT22;47065;52.898;6.992;2022-07-11T00:38:41;15.40;99.90
61201;DHT22;47065;52.898;6.992;2022-07-11T00:41:07;15.40;99.90
61201;DHT22;47065;52.898;6.992;2022-07-11T00:43:37;15.40;99.90
61201;DHT22;47065;52.898;6.992;2022-07-11T00:46:07;15.40;99.90
61201;DHT22;47065;52.898;6.992;2022-07-11T00:48:34;15.30;99.90
61201;DHT22;47065;52.898;6.992;2022-07-11T00:51:02;15.30;99.90
61201;DHT22;47065;52.898;6.992;2022-07-11T00:53:28;15.30;99.90
61201;DHT22;47065;52.898;6.992;2022-07-11T00:55:55;15.30;99.90
61201;DHT22;47065;52.898;6.992;2022-07-11T00:58:21;15.30;99.90
61201;DHT22;47065;52.898;6.992;2022-07-11T01:00:48;15.40;99.90
61201;DHT22;47065;52.898;6.992;2022-07-11T01:03:13;15.30;99.90
61201;DHT22;47065;52.898;6.992;2022-07-11T01:05:39;15.30;99.90
61201;DHT22;47065;52.898;6.992;2022-07-11T01:08:05;15.30;99.90
61201;DHT22;47065;52.898;6.992;2022-07-11T01:10:32;15.30;99.90
61201;DHT22;47065;52.898;6.992;2022-07-11T01:12:57;15.30;99.90
61201;DHT22;47065;52.898;6.992;2022-07-11T01:15:23;15.30;99.90
61201;DHT22;47065;52.898;6.992;2022-07-11T01:17:50;15.30;99.90
61201;DHT22;47065;52.898;6.992;2022-07-11T01:20:17;15.30;99.90
61201;DHT22;47065;52.898;6.992;2022-07-11T01:22:53;15.20;99.90
61201;DHT22;47065;52.898;6.992;2022-07-11T01:25:19;15.20;99.90
61201;DHT22;47065;52.898;6.992;2022-07-11T01:27:58;15.20;99.90
61201;DHT22;47065;52.898;6.992;2022-07-11T01:30:25;15.20;99.90
61201;DHT22;47065;52.898;6.992;2022-07-11T01:32:52;15.20;99.90
61201;DHT22;47065;52.898;6.992;2022-07-11T01:35:18;15.20;99.90
61201;DHT22;47065;52.898;6.992;2022-07-11T01:37:44;15.20;99.90
61201;DHT22;47065;52.898;6.992;2022-07-11T01:40:10;15.20;99.90
61201;DHT22;47065;52.898;6.992;2022-07-11T01:42:36;15.10;99.90
61201;DHT22;47065;52.898;6.992;2022-07-11T01:45:02;15.20;99.90
61201;DHT22;47065;52.898;6.992;2022-07-11T01:47:28;15.10;99.90
61201;DHT22;47065;52.898;6.992;2022-07-11T01:49:54;15.20;99.90
61201;DHT22;47065;52.898;6.992;2022-07-11T01:52:20;15.20;99.90
61201;DHT22;47065;52.898;6.992;2022-07-11T01:54:46;15.10;99.90
61201;DHT22;47065;52.898;6.992;2022-07-11T01:57:12;15.10;99.90
61201;DHT22;47065;52.898;6.992;2022-07-11T01:59:37;15.10;99.90
61201;DHT22;47065;52.898;6.992;2022-07-11T02:02:03;15.10;99.90
61201;DHT22;47065;52.898;6.992;2022-07-11T02:04:29;15.10;99.90
61201;DHT22;47065;52.898;6.992;2022-07-11T02:06:54;15.10;99.90
61201;DHT22;47065;52.898;6.992;2022-07-11T02:09:20;15.10;99.90
61201;DHT22;47065;52.898;6.992;2022-07-11T02:11:45;15.10;99.90
61201;DHT22;47065;52.898;6.992;2022-07-11T02:14:11;15.10;99.90
61201;DHT22;47065;52.898;6.992;2022-07-11T02:16:37;15.10;99.90
61201;DHT22;47065;52.898;6.992;2022-07-11T02:19:03;15.10;99.90
61201;DHT22;47065;52.898;6.992;2022-07-11T02:21:29;15.10;99.90
61201;DHT22;47065;52.898;6.992;2022-07-11T02:23:55;15.10;99.90
61201;DHT22;47065;52.898;6.992;2022-07-11T02:26:20;15.10;99.90
61201;DHT22;47065;52.898;6.992;2022-07-11T02:28:46;15.00;99.90
61201;DHT22;47065;52.898;6.992;2022-07-11T02:31:12;15.00;99.90
61201;DHT22;47065;52.898;6.992;2022-07-11T02:33:38;15.00;99.90
61201;DHT22;47065;52.898;6.992;2022-07-11T02:36:04;15.00;99.90
61201;DHT22;47065;52.898;6.992;2022-07-11T02:38:30;15.00;99.90
61201;DHT22;47065;52.898;6.992;2022-07-11T02:40:55;15.00;99.90
61201;DHT22;47065;52.898;6.992;2022-07-11T02:43:21;15.00;99.90
61201;DHT22;47065;52.898;6.992;2022-07-11T02:45:46;15.00;99.90
61201;DHT22;47065;52.898;6.992;2022-07-11T02:48:12;15.00;99.90
61201;DHT22;47065;52.898;6.992;2022-07-11T02:50:38;15.00;99.90
61201;DHT22;47065;52.898;6.992;2022-07-11T02:53:03;15.00;99.90
61201;DHT22;47065;52.898;6.992;2022-07-11T02:55:29;15.00;99.90
61201;DHT22;47065;52.898;6.992;2022-07-11T02:57:55;15.00;99.90
61201;DHT22;47065;52.898;6.992;2022-07-11T03:00:20;15.00;99.90
61201;DHT22;47065;52.898;6.992;2022-07-11T03:02:46;15.00;99.90
61201;DHT22;47065;52.898;6.992;2022-07-11T03:05:12;15.00;99.90
61201;DHT22;47065;52.898;6.992;2022-07-11T03:07:38;15.00;99.90
61201;DHT22;47065;52.898;6.992;2022-07-11T03:10:04;15.00;99.90
61201;DHT22;47065;52.898;6.992;2022-07-11T03:12:30;15.00;99.90
61201;DHT22;47065;52.898;6.992;2022-07-11T03:14:56;15.00;99.90
61201;DHT22;47065;52.898;6.992;2022-07-11T03:17:22;15.00;99.90
61201;DHT22;47065;52.898;6.992;2022-07-11T03:19:48;15.00;99.90
61201;DHT22;47065;52.898;6.992;2022-07-11T03:22:15;15.00;99.90
61201;DHT22;47065;52.898;6.992;2022-07-11T03:24:41;15.00;99.90
61201;DHT22;47065;52.898;6.992;2022-07-11T03:27:07;15.00;99.90
61201;DHT22;47065;52.898;6.992;2022-07-11T03:29:33;15.00;99.90
61201;DHT22;47065;52.898;6.992;2022-07-11T03:31:59;15.00;99.90
61201;DHT22;47065;52.898;6.992;2022-07-11T03:34:25;15.00;99.90
61201;DHT22;47065;52.898;6.992;2022-07-11T03:36:50;15.00;99.90
61201;DHT22;47065;52.898;6.992;2022-07-11T03:39:16;15.00;99.90
61201;DHT22;47065;52.898;6.992;2022-07-11T03:41:43;15.00;99.90
61201;DHT22;47065;52.898;6.992;2022-07-11T03:44:08;15.00;99.90
61201;DHT22;47065;52.898;6.992;2022-07-11T03:46:34;15.00;99.90
61201;DHT22;47065;52.898;6.992;2022-07-11T03:49:00;15.00;99.90
61201;DHT22;47065;52.898;6.992;2022-07-11T03:51:26;15.00;99.90
61201;DHT22;47065;52.898;6.992;2022-07-11T03:53:51;15.00;99.90
61201;DHT22;47065;52.898;6.992;2022-07-11T03:56:17;15.10;99.90
61201;DHT22;47065;52.898;6.992;2022-07-11T03:58:48;15.00;99.90
61201;DHT22;47065;52.898;6.992;2022-07-11T04:01:15;15.00;99.90
61201;DHT22;47065;52.898;6.992;2022-07-11T04:03:41;15.00;99.90
61201;DHT22;47065;52.898;6.992;2022-07-11T04:06:06;15.00;99.90
61201;DHT22;47065;52.898;6.992;2022-07-11T04:08:32;15.00;99.90
61201;DHT22;47065;52.898;6.992;2022-07-11T04:10:57;15.00;99.90
61201;DHT22;47065;52.898;6.992;2022-07-11T04:13:23;15.00;99.90
61201;DHT22;47065;52.898;6.992;2022-07-11T04:15:49;15.00;99.90
61201;DHT22;47065;52.898;6.992;2022-07-11T04:18:14;15.00;99.90
61201;DHT22;47065;52.898;6.992;2022-07-11T04:20:40;15.00;99.90
61201;DHT22;47065;52.898;6.992;2022-07-11T04:23:05;15.00;99.90
61201;DHT22;47065;52.898;6.992;2022-07-11T04:25:33;15.00;99.90
61201;DHT22;47065;52.898;6.992;2022-07-11T04:27:59;15.00;99.90
61201;DHT22;47065;52.898;6.992;2022-07-11T04:30:25;15.00;99.90
61201;DHT22;47065;52.898;6.992;2022-07-11T04:32:50;15.00;99.90
61201;DHT22;47065;52.898;6.992;2022-07-11T04:35:16;15.10;99.90
61201;DHT22;47065;52.898;6.992;2022-07-11T04:37:42;15.00;99.90
61201;DHT22;47065;52.898;6.992;2022-07-11T04:40:09;15.00;99.90
61201;DHT22;47065;52.898;6.992;2022-07-11T04:42:35;15.10;99.90
61201;DHT22;47065;52.898;6.992;2022-07-11T04:45:01;15.10;99.90
61201;DHT22;47065;52.898;6.992;2022-07-11T04:47:26;15.10;99.90
61201;DHT22;47065;52.898;6.992;2022-07-11T04:49:52;15.10;99.90
61201;DHT22;47065;52.898;6.992;2022-07-11T04:52:18;15.20;99.90
61201;DHT22;47065;52.898;6.992;2022-07-11T04:54:44;15.20;99.90
61201;DHT22;47065;52.898;6.992;2022-07-11T04:57:09;15.20;99.90
61201;DHT22;47065;52.898;6.992;2022-07-11T04:59:35;15.10;99.90
61201;DHT22;47065;52.898;6.992;2022-07-11T05:02:01;15.20;99.90
61201;DHT22;47065;52.898;6.992;2022-07-11T05:04:27;15.20;99.90
61201;DHT22;47065;52.898;6.992;2022-07-11T05:06:52;15.20;99.90
61201;DHT22;47065;52.898;6.992;2022-07-11T05:09:18;15.20;99.90
61201;DHT22;47065;52.898;6.992;2022-07-11T05:11:44;15.20;99.90
61201;DHT22;47065;52.898;6.992;2022-07-11T05:14:10;15.30;99.90
61201;DHT22;47065;52.898;6.992;2022-07-11T05:16:35;15.30;99.90
61201;DHT22;47065;52.898;6.992;2022-07-11T05:19:01;15.30;99.90
61201;DHT22;47065;52.898;6.992;2022-07-11T05:21:26;15.40;99.90
61201;DHT22;47065;52.898;6.992;2022-07-11T05:23:52;15.30;99.90
61201;DHT22;47065;52.898;6.992;2022-07-11T05:26:18;15.40;99.90
61201;DHT22;47065;52.898;6.992;2022-07-11T05:28:43;15.40;99.90
61201;DHT22;47065;52.898;6.992;2022-07-11T05:31:09;15.50;99.90
61201;DHT22;47065;52.898;6.992;2022-07-11T05:33:36;15.50;99.90
61201;DHT22;47065;52.898;6.992;2022-07-11T05:36:01;15.60;99.90
61201;DHT22;47065;52.898;6.992;2022-07-11T05:38:27;15.60;99.90
61201;DHT22;47065;52.898;6.992;2022-07-11T05:40:53;15.70;99.90
61201;DHT22;47065;52.898;6.992;2022-07-11T05:43:19;15.70;99.90
61201;DHT22;47065;52.898;6.992;2022-07-11T05:45:44;15.70;99.90
61201;DHT22;47065;52.898;6.992;2022-07-11T05:48:10;15.80;99.90
61201;DHT22;47065;52.898;6.992;2022-07-11T05:50:35;15.80;99.90
61201;DHT22;47065;52.898;6.992;2022-07-11T05:53:02;15.80;99.90
61201;DHT22;47065;52.898;6.992;2022-07-11T05:55:28;15.80;99.90
61201;DHT22;47065;52.898;6.992;2022-07-11T05:57:54;15.80;99.90
61201;DHT22;47065;52.898;6.992;2022-07-11T06:00:20;15.80;99.90
61201;DHT22;47065;52.898;6.992;2022-07-11T06:02:48;15.80;99.90
61201;DHT22;47065;52.898;6.992;2022-07-11T06:05:14;15.70;99.90
61201;DHT22;47065;52.898;6.992;2022-07-11T06:07:39;15.70;99.90
61201;DHT22;47065;52.898;6.992;2022-07-11T06:10:24;15.80;99.90
61201;DHT22;47065;52.898;6.992;2022-07-11T06:12:49;15.80;99.90
61201;DHT22;47065;52.898;6.992;2022-07-11T06:15:15;15.80;99.90
61201;DHT22;47065;52.898;6.992;2022-07-11T06:17:40;15.80;99.90
61201;DHT22;47065;52.898;6.992;2022-07-11T06:20:06;15.90;99.90
61201;DHT22;47065;52.898;6.992;2022-07-11T06:22:33;15.90;99.90
61201;DHT22;47065;52.898;6.992;2022-07-11T06:24:59;16.00;99.90
61201;DHT22;47065;52.898;6.992;2022-07-11T06:27:24;16.00;99.90
61201;DHT22;47065;52.898;6.992;2022-07-11T06:29:50;16.10;99.90
61201;DHT22;47065;52.898;6.992;2022-07-11T06:32:16;16.20;99.90
61201;DHT22;47065;52.898;6.992;2022-07-11T06:34:41;16.20;99.90
61201;DHT22;47065;52.898;6.992;2022-07-11T06:37:08;16.30;99.90
61201;DHT22;47065;52.898;6.992;2022-07-11T06:39:33;16.40;99.90
61201;DHT22;47065;52.898;6.992;2022-07-11T06:41:59;16.40;99.90
61201;DHT22;47065;52.898;6.992;2022-07-11T06:44:25;16.50;99.90
61201;DHT22;47065;52.898;6.992;2022-07-11T06:46:50;16.60;99.90
61201;DHT22;47065;52.898;6.992;2022-07-11T06:49:17;16.60;99.90
61201;DHT22;47065;52.898;6.992;2022-07-11T06:51:43;16.70;99.90
61201;DHT22;47065;52.898;6.992;2022-07-11T06:54:08;16.80;99.90
61201;DHT22;47065;52.898;6.992;2022-07-11T06:56:34;16.90;99.90
61201;DHT22;47065;52.898;6.992;2022-07-11T06:58:59;17.00;99.90
61201;DHT22;47065;52.898;6.992;2022-07-11T07:01:25;17.00;99.90
61201;DHT22;47065;52.898;6.992;2022-07-11T07:03:50;17.00;99.90
61201;DHT22;47065;52.898;6.992;2022-07-11T07:06:17;17.10;99.90
61201;DHT22;47065;52.898;6.992;2022-07-11T07:08:42;17.10;99.90
61201;DHT22;47065;52.898;6.992;2022-07-11T07:11:08;17.10;99.90
61201;DHT22;47065;52.898;6.992;2022-07-11T07:13:33;17.10;99.90
61201;DHT22;47065;52.898;6.992;2022-07-11T07:15:59;17.20;99.90
61201;DHT22;47065;52.898;6.992;2022-07-11T07:18:25;17.10;99.90
61201;DHT22;47065;52.898;6.992;2022-07-11T07:20:54;17.20;99.90
61201;DHT22;47065;52.898;6.992;2022-07-11T07:23:20;17.20;99.90
61201;DHT22;47065;52.898;6.992;2022-07-11T07:25:46;17.30;99.90
61201;DHT22;47065;52.898;6.992;2022-07-11T07:28:11;17.40;99.90
61201;DHT22;47065;52.898;6.992;2022-07-11T07:30:37;17.50;99.90
61201;DHT22;47065;52.898;6.992;2022-07-11T07:33:02;17.50;99.90
61201;DHT22;47065;52.898;6.992;2022-07-11T07:35:28;17.60;99.90
61201;DHT22;47065;52.898;6.992;2022-07-11T07:37:54;17.60;99.90
61201;DHT22;47065;52.898;6.992;2022-07-11T07:40:20;17.70;99.90
61201;DHT22;47065;52.898;6.992;2022-07-11T07:42:45;17.70;99.90
61201;DHT22;47065;52.898;6.992;2022-07-11T07:45:11;17.70;99.90
61201;DHT22;47065;52.898;6.992;2022-07-11T07:47:37;17.80;99.90
61201;DHT22;47065;52.898;6.992;2022-07-11T07:50:04;17.90;99.90
61201;DHT22;47065;52.898;6.992;2022-07-11T07:52:31;17.90;99.90
61201;DHT22;47065;52.898;6.992;2022-07-11T07:54:57;17.90;99.90
61201;DHT22;47065;52.898;6.992;2022-07-11T07:57:23;17.80;99.90
61201;DHT22;47065;52.898;6.992;2022-07-11T07:59:48;17.80;99.90
61201;DHT22;47065;52.898;6.992;2022-07-11T08:02:14;17.70;99.90
61201;DHT22;47065;52.898;6.992;2022-07-11T08:04:39;17.60;99.90
61201;DHT22;47065;52.898;6.992;2022-07-11T08:07:06;17.70;99.90
61201;DHT22;47065;52.898;6.992;2022-07-11T08:09:32;17.70;99.90
61201;DHT22;47065;52.898;6.992;2022-07-11T08:11:57;17.70;99.90
61201;DHT22;47065;52.898;6.992;2022-07-11T08:14:23;17.70;99.90
61201;DHT22;47065;52.898;6.992;2022-07-11T08:16:49;17.70;99.90
61201;DHT22;47065;52.898;6.992;2022-07-11T08:19:15;17.70;99.90
61201;DHT22;47065;52.898;6.992;2022-07-11T08:21:41;17.70;99.90
61201;DHT22;47065;52.898;6.992;2022-07-11T08:24:07;17.70;99.90
61201;DHT22;47065;52.898;6.992;2022-07-11T08:26:32;17.80;99.90
61201;DHT22;47065;52.898;6.992;2022-07-11T08:28:59;17.80;99.90
61201;DHT22;47065;52.898;6.992;2022-07-11T08:31:25;17.80;99.90
61201;DHT22;47065;52.898;6.992;2022-07-11T08:33:51;17.80;99.90
61201;DHT22;47065;52.898;6.992;2022-07-11T08:36:18;17.80;99.90
61201;DHT22;47065;52.898;6.992;2022-07-11T08:38:44;17.80;99.90
61201;DHT22;47065;52.898;6.992;2022-07-11T08:41:13;17.80;99.90
61201;DHT22;47065;52.898;6.992;2022-07-11T08:43:40;17.80;99.90
61201;DHT22;47065;52.898;6.992;2022-07-11T08:46:08;17.80;99.90
61201;DHT22;47065;52.898;6.992;2022-07-11T08:48:34;17.80;99.90
61201;DHT22;47065;52.898;6.992;2022-07-11T08:51:00;17.80;99.90
61201;DHT22;47065;52.898;6.992;2022-07-11T08:53:26;17.90;99.90
61201;DHT22;47065;52.898;6.992;2022-07-11T08:55:53;17.90;99.90
61201;DHT22;47065;52.898;6.992;2022-07-11T08:58:20;17.90;99.90
61201;DHT22;47065;52.898;6.992;2022-07-11T09:00:48;17.90;99.90
61201;DHT22;47065;52.898;6.992;2022-07-11T09:03:15;17.90;99.90
61201;DHT22;47065;52.898;6.992;2022-07-11T09:05:42;17.90;99.90
61201;DHT22;47065;52.898;6.992;2022-07-11T09:08:08;17.80;99.90
61201;DHT22;47065;52.898;6.992;2022-07-11T09:10:38;17.80;99.90
61201;DHT22;47065;52.898;6.992;2022-07-11T09:13:09;17.80;99.90
61201;DHT22;47065;52.898;6.992;2022-07-11T09:15:45;17.80;99.90
61201;DHT22;47065;52.898;6.992;2022-07-11T09:20:55;17.90;99.90
61201;DHT22;47065;52.898;6.992;2022-07-11T09:23:41;18.00;99.90
61201;DHT22;47065;52.898;6.992;2022-07-11T09:26:32;18.10;99.90
61201;DHT22;47065;52.898;6.992;2022-07-11T09:31:39;18.30;99.90
61201;DHT22;47065;52.898;6.992;2022-07-11T09:34:07;18.40;99.90
61201;DHT22;47065;52.898;6.992;2022-07-11T09:39:03;18.50;99.90
61201;DHT22;47065;52.898;6.992;2022-07-11T09:41:36;18.60;99.90
61201;DHT22;47065;52.898;6.992;2022-07-11T09:44:18;18.60;99.90
61201;DHT22;47065;52.898;6.992;2022-07-11T09:46:52;18.60;99.90
61201;DHT22;47065;52.898;6.992;2022-07-11T09:49:39;18.60;99.90
61201;DHT22;47065;52.898;6.992;2022-07-11T09:52:16;18.60;99.90
61201;DHT22;47065;52.898;6.992;2022-07-11T09:54:56;18.60;99.90
61201;DHT22;47065;52.898;6.992;2022-07-11T09:57:42;18.60;99.90
61201;DHT22;47065;52.898;6.992;2022-07-11T10:00:10;18.70;99.90
61201;DHT22;47065;52.898;6.992;2022-07-11T10:02:39;18.70;99.90
61201;DHT22;47065;52.898;6.992;2022-07-11T10:05:05;18.70;99.90
61201;DHT22;47065;52.898;6.992;2022-07-11T10:07:31;18.70;99.90
61201;DHT22;47065;52.898;6.992;2022-07-11T10:10:00;18.60;99.90
61201;DHT22;47065;52.898;6.992;2022-07-11T10:12:26;18.60;99.90
61201;DHT22;47065;52.898;6.992;2022-07-11T10:15:03;18.50;99.90
61201;DHT22;47065;52.898;6.992;2022-07-11T10:23:23;18.50;99.90
61201;DHT22;47065;52.898;6.992;2022-07-11T10:26:05;18.60;99.90
61201;DHT22;47065;52.898;6.992;2022-07-11T10:28:49;18.70;99.90
61201;DHT22;47065;52.898;6.992;2022-07-11T10:31:21;18.70;99.90
61201;DHT22;47065;52.898;6.992;2022-07-11T10:34:08;18.80;99.90
61201;DHT22;47065;52.898;6.992;2022-07-11T10:36:41;18.90;99.90
61201;DHT22;47065;52.898;6.992;2022-07-11T10:41:58;19.00;99.90
61201;DHT22;47065;52.898;6.992;2022-07-11T10:44:26;19.00;99.90
61201;DHT22;47065;52.898;6.992;2022-07-11T10:46:52;19.00;99.90
61201;DHT22;47065;52.898;6.992;2022-07-11T10:49:36;19.00;99.90
61201;DHT22;47065;52.898;6.992;2022-07-11T10:52:06;19.00;99.90
61201;DHT22;47065;52.898;6.992;2022-07-11T10:54:58;19.10;99.90
61201;DHT22;47065;52.898;6.992;2022-07-11T10:57:40;19.10;99.90
61201;DHT22;47065;52.898;6.992;2022-07-11T11:00:10;19.20;99.90
61201;DHT22;47065;52.898;6.992;2022-07-11T11:03:03;19.30;99.90
61201;DHT22;47065;52.898;6.992;2022-07-11T11:05:50;19.40;99.90
61201;DHT22;47065;52.898;6.992;2022-07-11T11:11:06;19.70;99.90
61201;DHT22;47065;52.898;6.992;2022-07-11T11:13:34;19.80;99.90
61201;DHT22;47065;52.898;6.992;2022-07-11T11:16:21;19.80;99.90
61201;DHT22;47065;52.898;6.992;2022-07-11T11:18:48;19.80;99.90
61201;DHT22;47065;52.898;6.992;2022-07-11T11:21:17;19.70;99.90
61201;DHT22;47065;52.898;6.992;2022-07-11T11:24:04;19.60;99.90
61201;DHT22;47065;52.898;6.992;2022-07-11T11:29:08;19.50;99.90
61201;DHT22;47065;52.898;6.992;2022-07-11T11:31:34;19.60;99.90
61201;DHT22;47065;52.898;6.992;2022-07-11T11:34:02;19.70;99.90
61201;DHT22;47065;52.898;6.992;2022-07-11T11:36:28;19.80;99.90
61201;DHT22;47065;52.898;6.992;2022-07-11T11:38:54;19.90;99.90
61201;DHT22;47065;52.898;6.992;2022-07-11T11:41:30;20.00;99.90
61201;DHT22;47065;52.898;6.992;2022-07-11T11:43:58;20.00;99.90
61201;DHT22;47065;52.898;6.992;2022-07-11T11:46:28;20.00;99.90
61201;DHT22;47065;52.898;6.992;2022-07-11T11:48:57;20.00;99.90
61201;DHT22;47065;52.898;6.992;2022-07-11T11:51:26;20.00;99.90
61201;DHT22;47065;52.898;6.992;2022-07-11T11:54:03;20.00;99.90
61201;DHT22;47065;52.898;6.992;2022-07-11T11:56:30;20.00;99.90
61201;DHT22;47065;52.898;6.992;2022-07-11T11:59:10;20.00;99.90
61201;DHT22;47065;52.898;6.992;2022-07-11T12:01:40;20.00;99.90
61201;DHT22;47065;52.898;6.992;2022-07-11T12:04:10;19.90;99.90
61201;DHT22;47065;52.898;6.992;2022-07-11T12:06:38;19.90;99.90
61201;DHT22;47065;52.898;6.992;2022-07-11T12:11:33;19.90;99.90
61201;DHT22;47065;52.898;6.992;2022-07-11T12:14:01;19.90;99.90
61201;DHT22;47065;52.898;6.992;2022-07-11T12:16:28;20.00;99.90
61201;DHT22;47065;52.898;6.992;2022-07-11T12:19:28;20.10;99.90
61201;DHT22;47065;52.898;6.992;2022-07-11T12:21:58;20.10;99.90
61201;DHT22;47065;52.898;6.992;2022-07-11T12:24:25;20.10;99.90
61201;DHT22;47065;52.898;6.992;2022-07-11T12:26:55;20.10;99.90
61201;DHT22;47065;52.898;6.992;2022-07-11T12:29:28;20.10;99.90
61201;DHT22;47065;52.898;6.992;2022-07-11T12:31:55;20.00;99.90
61201;DHT22;47065;52.898;6.992;2022-07-11T12:34:22;19.90;99.90
61201;DHT22;47065;52.898;6.992;2022-07-11T12:36:48;19.90;99.90
61201;DHT22;47065;52.898;6.992;2022-07-11T12:39:23;19.90;99.90
61201;DHT22;47065;52.898;6.992;2022-07-11T12:41:51;20.00;99.90
61201;DHT22;47065;52.898;6.992;2022-07-11T12:44:22;20.10;99.90
61201;DHT22;47065;52.898;6.992;2022-07-11T12:47:06;20.10;99.90
61201;DHT22;47065;52.898;6.992;2022-07-11T12:49:32;20.20;99.90
61201;DHT22;47065;52.898;6.992;2022-07-11T12:51:58;20.20;99.90
61201;DHT22;47065;52.898;6.992;2022-07-11T12:54:32;20.30;99.90
61201;DHT22;47065;52.898;6.992;2022-07-11T12:57:00;20.30;99.90
61201;DHT22;47065;52.898;6.992;2022-07-11T12:59:30;20.30;99.90
61201;DHT22;47065;52.898;6.992;2022-07-11T13:04:33;20.50;99.90
61201;DHT22;47065;52.898;6.992;2022-07-11T13:10:03;20.50;99.90
61201;DHT22;47065;52.898;6.992;2022-07-11T13:12:29;20.50;99.90
61201;DHT22;47065;52.898;6.992;2022-07-11T13:15:06;20.50;99.90
61201;DHT22;47065;52.898;6.992;2022-07-11T13:17:45;20.50;99.90
61201;DHT22;47065;52.898;6.992;2022-07-11T13:20:19;20.40;99.90
61201;DHT22;47065;52.898;6.992;2022-07-11T13:22:47;20.30;99.90
61201;DHT22;47065;52.898;6.992;2022-07-11T13:25:14;20.30;99.90
61201;DHT22;47065;52.898;6.992;2022-07-11T13:27:41;20.30;99.90
61201;DHT22;47065;52.898;6.992;2022-07-11T13:30:09;20.40;99.90
61201;DHT22;47065;52.898;6.992;2022-07-11T13:32:40;20.40;99.90
61201;DHT22;47065;52.898;6.992;2022-07-11T13:35:06;20.40;99.90
61201;DHT22;47065;52.898;6.992;2022-07-11T13:37:34;20.40;99.90
61201;DHT22;47065;52.898;6.992;2022-07-11T13:40:09;20.40;99.90
61201;DHT22;47065;52.898;6.992;2022-07-11T13:42:35;20.30;99.90
61201;DHT22;47065;52.898;6.992;2022-07-11T13:45:03;20.20;99.90
61201;DHT22;47065;52.898;6.992;2022-07-11T13:47:28;20.20;99.90
61201;DHT22;47065;52.898;6.992;2022-07-11T13:49:54;20.10;99.90
61201;DHT22;47065;52.898;6.992;2022-07-11T13:52:21;20.00;99.90
61201;DHT22;47065;52.898;6.992;2022-07-11T13:54:46;20.00;99.90
61201;DHT22;47065;52.898;6.992;2022-07-11T13:57:12;20.10;99.90
61201;DHT22;47065;52.898;6.992;2022-07-11T13:59:38;20.10;99.90
61201;DHT22;47065;52.898;6.992;2022-07-11T14:02:05;20.10;99.90
61201;DHT22;47065;52.898;6.992;2022-07-11T14:04:31;20.20;99.90
61201;DHT22;47065;52.898;6.992;2022-07-11T14:06:57;20.30;99.90
61201;DHT22;47065;52.898;6.992;2022-07-11T14:09:22;20.40;99.90
61201;DHT22;47065;52.898;6.992;2022-07-11T14:11:48;20.40;99.90
61201;DHT22;47065;52.898;6.992;2022-07-11T14:14:14;20.40;99.90
61201;DHT22;47065;52.898;6.992;2022-07-11T14:16:40;20.40;99.90
61201;DHT22;47065;52.898;6.992;2022-07-11T14:19:05;20.40;99.90
61201;DHT22;47065;52.898;6.992;2022-07-11T14:21:34;20.40;99.90
61201;DHT22;47065;52.898;6.992;2022-07-11T14:24:00;20.30;99.90
61201;DHT22;47065;52.898;6.992;2022-07-11T14:26:26;20.40;99.90
61201;DHT22;47065;52.898;6.992;2022-07-11T14:28:51;20.50;99.90
61201;DHT22;47065;52.898;6.992;2022-07-11T14:31:17;20.50;99.90
61201;DHT22;47065;52.898;6.992;2022-07-11T14:33:43;20.60;99.90
61201;DHT22;47065;52.898;6.992;2022-07-11T14:36:09;20.70;99.90
61201;DHT22;47065;52.898;6.992;2022-07-11T14:38:34;20.70;99.90
61201;DHT22;47065;52.898;6.992;2022-07-11T14:41:00;20.70;99.90
61201;DHT22;47065;52.898;6.992;2022-07-11T14:43:26;20.80;99.90
61201;DHT22;47065;52.898;6.992;2022-07-11T14:45:54;20.90;99.90
61201;DHT22;47065;52.898;6.992;2022-07-11T14:48:19;20.90;99.90
61201;DHT22;47065;52.898;6.992;2022-07-11T14:50:45;21.00;99.90
61201;DHT22;47065;52.898;6.992;2022-07-11T14:53:12;21.00;99.90
61201;DHT22;47065;52.898;6.992;2022-07-11T14:55:38;21.10;99.90
61201;DHT22;47065;52.898;6.992;2022-07-11T14:58:03;21.10;99.90
61201;DHT22;47065;52.898;6.992;2022-07-11T15:00:29;21.10;99.90
61201;DHT22;47065;52.898;6.992;2022-07-11T15:02:57;21.10;99.90
61201;DHT22;47065;52.898;6.992;2022-07-11T15:05:41;21.10;99.90
61201;DHT22;47065;52.898;6.992;2022-07-11T15:08:07;21.20;99.90
61201;DHT22;47065;52.898;6.992;2022-07-11T15:10:51;21.30;99.90
61201;DHT22;47065;52.898;6.992;2022-07-11T15:13:35;21.40;99.90
61201;DHT22;47065;52.898;6.992;2022-07-11T15:16:01;21.50;99.90
61201;DHT22;47065;52.898;6.992;2022-07-11T15:18:28;21.50;99.90
61201;DHT22;47065;52.898;6.992;2022-07-11T15:20:53;21.50;99.90
61201;DHT22;47065;52.898;6.992;2022-07-11T15:23:19;21.60;99.90
61201;DHT22;47065;52.898;6.992;2022-07-11T15:25:45;21.60;99.90
61201;DHT22;47065;52.898;6.992;2022-07-11T15:28:10;21.60;99.90
61201;DHT22;47065;52.898;6.992;2022-07-11T15:30:36;21.60;99.90
61201;DHT22;47065;52.898;6.992;2022-07-11T15:33:01;21.50;99.90
61201;DHT22;47065;52.898;6.992;2022-07-11T15:35:27;21.50;99.90
61201;DHT22;47065;52.898;6.992;2022-07-11T15:37:53;21.60;99.90
61201;DHT22;47065;52.898;6.992;2022-07-11T15:40:18;21.60;99.90
61201;DHT22;47065;52.898;6.992;2022-07-11T15:42:44;21.70;99.90
61201;DHT22;47065;52.898;6.992;2022-07-11T15:45:10;21.60;99.90
61201;DHT22;47065;52.898;6.992;2022-07-11T15:47:37;21.60;99.90
61201;DHT22;47065;52.898;6.992;2022-07-11T15:50:05;21.50;99.90
61201;DHT22;47065;52.898;6.992;2022-07-11T15:52:31;21.40;99.90
61201;DHT22;47065;52.898;6.992;2022-07-11T15:54:56;21.40;99.90
61201;DHT22;47065;52.898;6.992;2022-07-11T15:57:22;21.30;99.90
61201;DHT22;47065;52.898;6.992;2022-07-11T15:59:48;21.20;99.90
61201;DHT22;47065;52.898;6.992;2022-07-11T16:02:13;21.10;99.90
61201;DHT22;47065;52.898;6.992;2022-07-11T16:04:39;21.10;99.90